DAL1690 KSLC-KLAS
Flight info
| Callsign | DAL1690 |
|---|---|
| Flight time | 0h 57m |
| Altitude | 36000 |
| Route | ARCHZ1 MLF STEWW CHOWW4 |
| Aircraft | A321/M-SDE3FGHIRWY/LB1 |
Departure
| Time | 2026-04-30 06:00 |
|---|---|
| Airport | Salt Lake City International Airport (KSLC) |
Arrival
| Time | 2026-04-30 06:57 |
|---|---|
| Airport | Harry Reid International Airport (KLAS) |
| Time | Latitude | Longitude | Altitude | Speed | Heading |
|---|---|---|---|---|---|
| 2026-04-30 05:13 | 40.78602 | -111.98889 | 4235 ft | 0 kts | 175° |
| 2026-04-30 05:41 | 40.78603 | -111.98889 | 4235 ft | 0 kts | 175° |
| 2026-04-30 05:49 | 40.78615 | -111.98890 | 4234 ft | 3 kts | 175° |
| 2026-04-30 05:49 | 40.78634 | -111.98892 | 4234 ft | 3 kts | 175° |
| 2026-04-30 05:49 | 40.78653 | -111.98890 | 4233 ft | 3 kts | 206° |
| 2026-04-30 05:49 | 40.78669 | -111.98875 | 4233 ft | 3 kts | 227° |
| 2026-04-30 05:50 | 40.78680 | -111.98853 | 4234 ft | 3 kts | 258° |
| 2026-04-30 05:50 | 40.78682 | -111.98841 | 4231 ft | 0 kts | 266° |
| 2026-04-30 05:54 | 40.78681 | -111.98848 | 4235 ft | 3 kts | 266° |
| 2026-04-30 05:54 | 40.78679 | -111.98894 | 4235 ft | 6 kts | 266° |
| 2026-04-30 05:54 | 40.78676 | -111.98948 | 4235 ft | 6 kts | 266° |
| 2026-04-30 05:54 | 40.78672 | -111.99001 | 4235 ft | 6 kts | 264° |
| 2026-04-30 05:55 | 40.78667 | -111.99063 | 4235 ft | 8 kts | 264° |
| 2026-04-30 05:55 | 40.78663 | -111.99140 | 4235 ft | 9 kts | 265° |
| 2026-04-30 05:55 | 40.78656 | -111.99233 | 4235 ft | 11 kts | 265° |
| 2026-04-30 05:55 | 40.78652 | -111.99305 | 4235 ft | 12 kts | 265° |
| 2026-04-30 05:56 | 40.78642 | -111.99426 | 4235 ft | 14 kts | 256° |
| 2026-04-30 05:56 | 40.78556 | -111.99454 | 4235 ft | 15 kts | 173° |
| 2026-04-30 05:56 | 40.78446 | -111.99441 | 4235 ft | 17 kts | 175° |
| 2026-04-30 05:56 | 40.78323 | -111.99426 | 4234 ft | 19 kts | 175° |
| 2026-04-30 05:57 | 40.78185 | -111.99409 | 4234 ft | 20 kts | 174° |
| 2026-04-30 05:57 | 40.78049 | -111.99427 | 4234 ft | 20 kts | 194° |
| 2026-04-30 05:57 | 40.77911 | -111.99432 | 4234 ft | 20 kts | 174° |
| 2026-04-30 05:57 | 40.77772 | -111.99414 | 4235 ft | 20 kts | 176° |
| 2026-04-30 05:58 | 40.77635 | -111.99401 | 4235 ft | 19 kts | 175° |
| 2026-04-30 05:58 | 40.77527 | -111.99423 | 4234 ft | 13 kts | 234° |
| 2026-04-30 05:58 | 40.77528 | -111.99528 | 4235 ft | 11 kts | 298° |
| 2026-04-30 05:58 | 40.77583 | -111.99560 | 4237 ft | 8 kts | 357° |
| 2026-04-30 05:59 | 40.77675 | -111.99569 | 4236 ft | 32 kts | 355° |
| 2026-04-30 05:59 | 40.78153 | -111.99624 | 4232 ft | 102 kts | 355° |
| 2026-04-30 05:59 | 40.79050 | -111.99729 | 4237 ft | 154 kts | 355° |
| 2026-04-30 05:59 | 40.80253 | -111.99866 | 4370 ft | 183 kts | 355° |
| 2026-04-30 06:00 | 40.81493 | -112.00018 | 5157 ft | 177 kts | 350° |
| 2026-04-30 06:00 | 40.82551 | -112.00833 | 5804 ft | 182 kts | 309° |
| 2026-04-30 06:00 | 40.83036 | -112.02439 | 6092 ft | 202 kts | 278° |
| 2026-04-30 06:00 | 40.83121 | -112.04382 | 6242 ft | 223 kts | 272° |
| 2026-04-30 06:01 | 40.83131 | -112.06522 | 6372 ft | 245 kts | 271° |
| 2026-04-30 06:01 | 40.83130 | -112.08890 | 6597 ft | 270 kts | 271° |
| 2026-04-30 06:01 | 40.83126 | -112.11414 | 7176 ft | 278 kts | 271° |
| 2026-04-30 06:01 | 40.83117 | -112.13987 | 7930 ft | 282 kts | 271° |
| 2026-04-30 06:02 | 40.83056 | -112.16614 | 8700 ft | 285 kts | 263° |
| 2026-04-30 06:02 | 40.82381 | -112.19094 | 9432 ft | 292 kts | 239° |
| 2026-04-30 06:02 | 40.81006 | -112.21087 | 10170 ft | 299 kts | 221° |
| 2026-04-30 06:02 | 40.79364 | -112.22930 | 10354 ft | 322 kts | 221° |
| 2026-04-30 06:03 | 40.77592 | -112.24884 | 10631 ft | 340 kts | 219° |
| 2026-04-30 06:03 | 40.75573 | -112.26568 | 11242 ft | 347 kts | 207° |
| 2026-04-30 06:03 | 40.73298 | -112.27683 | 11952 ft | 351 kts | 195° |
| 2026-04-30 06:03 | 40.70877 | -112.28255 | 12677 ft | 355 kts | 189° |
| 2026-04-30 06:04 | 40.68430 | -112.28751 | 13409 ft | 358 kts | 189° |
| 2026-04-30 06:04 | 40.65961 | -112.29252 | 14101 ft | 361 kts | 190° |
| 2026-04-30 06:04 | 40.63470 | -112.29756 | 14733 ft | 364 kts | 190° |
| 2026-04-30 06:05 | 40.58426 | -112.30777 | 15985 ft | 370 kts | 190° |
| 2026-04-30 06:05 | 40.55883 | -112.31409 | 16595 ft | 373 kts | 197° |
| 2026-04-30 06:05 | 40.53398 | -112.32412 | 17216 ft | 375 kts | 199° |
| 2026-04-30 06:05 | 40.50892 | -112.33438 | 17829 ft | 379 kts | 199° |
| 2026-04-30 06:06 | 40.48366 | -112.34472 | 18434 ft | 382 kts | 199° |
| 2026-04-30 06:06 | 40.45819 | -112.35514 | 18963 ft | 385 kts | 199° |
| 2026-04-30 06:06 | 40.43251 | -112.36568 | 19482 ft | 388 kts | 199° |
| 2026-04-30 06:06 | 40.40664 | -112.37632 | 19992 ft | 391 kts | 199° |
| 2026-04-30 06:07 | 40.38061 | -112.38701 | 20496 ft | 394 kts | 199° |
| 2026-04-30 06:07 | 40.35434 | -112.39774 | 20989 ft | 397 kts | 199° |
| 2026-04-30 06:07 | 40.32787 | -112.40854 | 21476 ft | 400 kts | 199° |
| 2026-04-30 06:07 | 40.30117 | -112.41938 | 21964 ft | 403 kts | 199° |
| 2026-04-30 06:08 | 40.27430 | -112.43026 | 22454 ft | 406 kts | 199° |
| 2026-04-30 06:08 | 40.24719 | -112.44127 | 22939 ft | 409 kts | 199° |
| 2026-04-30 06:08 | 40.21991 | -112.45232 | 23409 ft | 412 kts | 199° |
| 2026-04-30 06:08 | 40.19250 | -112.46357 | 23833 ft | 414 kts | 202° |
| 2026-04-30 06:09 | 40.16629 | -112.47886 | 24218 ft | 413 kts | 211° |
| 2026-04-30 06:09 | 40.14096 | -112.49681 | 24612 ft | 415 kts | 211° |
| 2026-04-30 06:09 | 40.11518 | -112.51505 | 25015 ft | 417 kts | 211° |
| 2026-04-30 06:09 | 40.08958 | -112.53314 | 25413 ft | 419 kts | 211° |
| 2026-04-30 06:10 | 40.06392 | -112.55121 | 25805 ft | 421 kts | 211° |
| 2026-04-30 06:10 | 40.03807 | -112.56939 | 26201 ft | 423 kts | 211° |
| 2026-04-30 06:10 | 40.01211 | -112.58760 | 26582 ft | 425 kts | 211° |
| 2026-04-30 06:10 | 39.98603 | -112.60587 | 26965 ft | 427 kts | 211° |
| 2026-04-30 06:11 | 39.95979 | -112.62421 | 27342 ft | 429 kts | 211° |
| 2026-04-30 06:11 | 39.93348 | -112.64259 | 27692 ft | 431 kts | 211° |
| 2026-04-30 06:11 | 39.90701 | -112.66110 | 28061 ft | 433 kts | 211° |
| 2026-04-30 06:11 | 39.88046 | -112.67970 | 28405 ft | 435 kts | 211° |
| 2026-04-30 06:12 | 39.85377 | -112.69839 | 28754 ft | 437 kts | 211° |
| 2026-04-30 06:12 | 39.82693 | -112.71714 | 29080 ft | 439 kts | 211° |
| 2026-04-30 06:12 | 39.79997 | -112.73593 | 29415 ft | 441 kts | 211° |
| 2026-04-30 06:12 | 39.77284 | -112.75482 | 29719 ft | 443 kts | 211° |
| 2026-04-30 06:13 | 39.74564 | -112.77369 | 30008 ft | 445 kts | 211° |
| 2026-04-30 06:13 | 39.71822 | -112.79270 | 30281 ft | 447 kts | 211° |
| 2026-04-30 06:13 | 39.69025 | -112.80977 | 30415 ft | 445 kts | 204° |
| 2026-04-30 06:13 | 39.66021 | -112.82115 | 30540 ft | 454 kts | 194° |
| 2026-04-30 06:14 | 39.62865 | -112.82682 | 30752 ft | 460 kts | 190° |
| 2026-04-30 06:14 | 39.59680 | -112.83145 | 31024 ft | 462 kts | 190° |
| 2026-04-30 06:14 | 39.56494 | -112.83615 | 31418 ft | 460 kts | 190° |
| 2026-04-30 06:14 | 39.53322 | -112.84089 | 31819 ft | 458 kts | 191° |
| 2026-04-30 06:15 | 39.50155 | -112.84567 | 32224 ft | 457 kts | 191° |
| 2026-04-30 06:15 | 39.47004 | -112.85046 | 32624 ft | 455 kts | 191° |
| 2026-04-30 06:15 | 39.43862 | -112.85523 | 33020 ft | 454 kts | 191° |
| 2026-04-30 06:15 | 39.40732 | -112.85993 | 33424 ft | 452 kts | 191° |
| 2026-04-30 06:16 | 39.37615 | -112.86458 | 33813 ft | 451 kts | 192° |
| 2026-04-30 06:16 | 39.34498 | -112.86920 | 34184 ft | 449 kts | 192° |
| 2026-04-30 06:16 | 39.31401 | -112.87378 | 34479 ft | 448 kts | 192° |
| 2026-04-30 06:16 | 39.28262 | -112.87842 | 34751 ft | 448 kts | 192° |
| 2026-04-30 06:17 | 39.25164 | -112.88296 | 35021 ft | 447 kts | 192° |
| 2026-04-30 06:17 | 39.22074 | -112.88749 | 35274 ft | 447 kts | 192° |
| 2026-04-30 06:17 | 39.18984 | -112.89202 | 35532 ft | 446 kts | 192° |
| 2026-04-30 06:17 | 39.15909 | -112.89655 | 35789 ft | 446 kts | 193° |
| 2026-04-30 06:18 | 39.12831 | -112.90112 | 36004 ft | 446 kts | 193° |
| 2026-04-30 06:18 | 39.06696 | -112.91018 | 36065 ft | 441 kts | 193° |
| 2026-04-30 06:19 | 39.00616 | -112.91909 | 36059 ft | 439 kts | 193° |
| 2026-04-30 06:19 | 38.94547 | -112.92802 | 36062 ft | 438 kts | 193° |
| 2026-04-30 06:20 | 38.88495 | -112.93692 | 36062 ft | 437 kts | 193° |
| 2026-04-30 06:20 | 38.82452 | -112.94579 | 36051 ft | 437 kts | 194° |
| 2026-04-30 06:21 | 38.76414 | -112.95466 | 36051 ft | 436 kts | 194° |
| 2026-04-30 06:21 | 38.70381 | -112.96345 | 36076 ft | 436 kts | 194° |
| 2026-04-30 06:22 | 38.64351 | -112.97218 | 36098 ft | 436 kts | 194° |
| 2026-04-30 06:22 | 38.58332 | -112.98091 | 36126 ft | 435 kts | 194° |
| 2026-04-30 06:23 | 38.52323 | -112.98964 | 36147 ft | 434 kts | 194° |
| 2026-04-30 06:23 | 38.46327 | -112.99842 | 36150 ft | 433 kts | 195° |
| 2026-04-30 06:24 | 38.40301 | -113.00718 | 36152 ft | 432 kts | 195° |
| 2026-04-30 06:24 | 38.34461 | -113.02071 | 36153 ft | 418 kts | 207° |
| 2026-04-30 06:25 | 38.29043 | -113.04634 | 36138 ft | 415 kts | 208° |
| 2026-04-30 06:25 | 38.23652 | -113.07206 | 36114 ft | 414 kts | 208° |
| 2026-04-30 06:26 | 38.18252 | -113.09772 | 36093 ft | 413 kts | 208° |
| 2026-04-30 06:26 | 38.12863 | -113.12320 | 36070 ft | 413 kts | 208° |
| 2026-04-30 06:27 | 38.07481 | -113.14859 | 36050 ft | 412 kts | 209° |
| 2026-04-30 06:27 | 38.02110 | -113.17397 | 36064 ft | 412 kts | 209° |
| 2026-04-30 06:28 | 37.96746 | -113.19931 | 36081 ft | 411 kts | 209° |
| 2026-04-30 06:28 | 37.92293 | -113.22028 | 36099 ft | 410 kts | 209° |
| 2026-04-30 06:29 | 37.86939 | -113.24536 | 36114 ft | 410 kts | 209° |
| 2026-04-30 06:29 | 37.81599 | -113.27040 | 36133 ft | 409 kts | 209° |
| 2026-04-30 06:30 | 37.76230 | -113.29552 | 36133 ft | 408 kts | 209° |
| 2026-04-30 06:30 | 37.70901 | -113.32043 | 36126 ft | 408 kts | 209° |
| 2026-04-30 06:31 | 37.65576 | -113.34534 | 36111 ft | 408 kts | 209° |
| 2026-04-30 06:31 | 37.60256 | -113.37015 | 36089 ft | 408 kts | 209° |
| 2026-04-30 06:32 | 37.54937 | -113.39491 | 36063 ft | 408 kts | 208° |
| 2026-04-30 06:32 | 37.49618 | -113.41963 | 36032 ft | 407 kts | 208° |
| 2026-04-30 06:33 | 37.44298 | -113.44430 | 36006 ft | 407 kts | 208° |
| 2026-04-30 06:33 | 37.38977 | -113.46893 | 35998 ft | 407 kts | 208° |
| 2026-04-30 06:34 | 37.33658 | -113.49350 | 35996 ft | 407 kts | 208° |
| 2026-04-30 06:34 | 37.28337 | -113.51808 | 35999 ft | 407 kts | 208° |
| 2026-04-30 06:35 | 37.23036 | -113.54329 | 35966 ft | 407 kts | 210° |
| 2026-04-30 06:35 | 37.20420 | -113.55759 | 35108 ft | 415 kts | 212° |
| 2026-04-30 06:35 | 37.17789 | -113.57325 | 34194 ft | 422 kts | 213° |
| 2026-04-30 06:35 | 37.15141 | -113.58955 | 33027 ft | 426 kts | 213° |
| 2026-04-30 06:36 | 37.12470 | -113.60598 | 32319 ft | 427 kts | 213° |
| 2026-04-30 06:36 | 37.09798 | -113.62208 | 31803 ft | 425 kts | 212° |
| 2026-04-30 06:36 | 37.07131 | -113.63787 | 31275 ft | 423 kts | 212° |
| 2026-04-30 06:36 | 37.04467 | -113.65340 | 30750 ft | 421 kts | 212° |
| 2026-04-30 06:37 | 37.01812 | -113.66876 | 30226 ft | 419 kts | 212° |
| 2026-04-30 06:37 | 36.99172 | -113.68401 | 29649 ft | 417 kts | 212° |
| 2026-04-30 06:37 | 36.96549 | -113.69919 | 29128 ft | 413 kts | 212° |
| 2026-04-30 06:37 | 36.93949 | -113.71431 | 28539 ft | 411 kts | 212° |
| 2026-04-30 06:38 | 36.91362 | -113.72939 | 27977 ft | 409 kts | 212° |
| 2026-04-30 06:38 | 36.88788 | -113.74441 | 27420 ft | 407 kts | 212° |
| 2026-04-30 06:38 | 36.86231 | -113.75934 | 26876 ft | 405 kts | 212° |
| 2026-04-30 06:38 | 36.83679 | -113.77424 | 26340 ft | 404 kts | 212° |
| 2026-04-30 06:39 | 36.81099 | -113.78930 | 25817 ft | 403 kts | 212° |
| 2026-04-30 06:39 | 36.78560 | -113.80410 | 25299 ft | 402 kts | 212° |
| 2026-04-30 06:39 | 36.76029 | -113.81887 | 24790 ft | 401 kts | 212° |
| 2026-04-30 06:39 | 36.73510 | -113.83353 | 24300 ft | 399 kts | 212° |
| 2026-04-30 06:40 | 36.70997 | -113.84809 | 23791 ft | 397 kts | 212° |
| 2026-04-30 06:40 | 36.68498 | -113.86252 | 23242 ft | 396 kts | 212° |
| 2026-04-30 06:40 | 36.66005 | -113.87692 | 22712 ft | 392 kts | 211° |
| 2026-04-30 06:40 | 36.63540 | -113.89120 | 22217 ft | 389 kts | 211° |
| 2026-04-30 06:41 | 36.61114 | -113.90564 | 21709 ft | 384 kts | 214° |
| 2026-04-30 06:41 | 36.58932 | -113.92393 | 21215 ft | 373 kts | 225° |
| 2026-04-30 06:41 | 36.57122 | -113.94645 | 20729 ft | 364 kts | 236° |
| 2026-04-30 06:41 | 36.55590 | -113.97125 | 20248 ft | 360 kts | 237° |
| 2026-04-30 06:42 | 36.54066 | -113.99598 | 19759 ft | 359 kts | 236° |
| 2026-04-30 06:42 | 36.52547 | -114.02050 | 19295 ft | 357 kts | 236° |
| 2026-04-30 06:42 | 36.51031 | -114.04488 | 18808 ft | 356 kts | 235° |
| 2026-04-30 06:42 | 36.49520 | -114.06914 | 18340 ft | 355 kts | 234° |
| 2026-04-30 06:43 | 36.48012 | -114.09340 | 17816 ft | 354 kts | 234° |
| 2026-04-30 06:43 | 36.46514 | -114.11749 | 17351 ft | 351 kts | 234° |
| 2026-04-30 06:43 | 36.45025 | -114.14140 | 16887 ft | 349 kts | 234° |
| 2026-04-30 06:43 | 36.43549 | -114.16506 | 16452 ft | 346 kts | 234° |
| 2026-04-30 06:44 | 36.42083 | -114.18853 | 16091 ft | 341 kts | 234° |
| 2026-04-30 06:44 | 36.40655 | -114.21137 | 15960 ft | 329 kts | 234° |
| 2026-04-30 06:44 | 36.39277 | -114.23343 | 15814 ft | 318 kts | 234° |
| 2026-04-30 06:44 | 36.37924 | -114.25490 | 15484 ft | 315 kts | 234° |
| 2026-04-30 06:45 | 36.36569 | -114.27621 | 15111 ft | 313 kts | 233° |
| 2026-04-30 06:45 | 36.35218 | -114.29735 | 14702 ft | 313 kts | 233° |
| 2026-04-30 06:45 | 36.33872 | -114.31840 | 14381 ft | 309 kts | 233° |
| 2026-04-30 06:45 | 36.32545 | -114.33921 | 13877 ft | 305 kts | 233° |
| 2026-04-30 06:46 | 36.31235 | -114.35973 | 13468 ft | 302 kts | 233° |
| 2026-04-30 06:46 | 36.29934 | -114.38008 | 13074 ft | 301 kts | 233° |
| 2026-04-30 06:46 | 36.28630 | -114.40043 | 12699 ft | 301 kts | 233° |
| 2026-04-30 06:46 | 36.27332 | -114.42069 | 12324 ft | 300 kts | 233° |
| 2026-04-30 06:47 | 36.26036 | -114.44090 | 11952 ft | 299 kts | 233° |
| 2026-04-30 06:47 | 36.24745 | -114.46101 | 11578 ft | 298 kts | 232° |
| 2026-04-30 06:47 | 36.23448 | -114.48099 | 11206 ft | 297 kts | 232° |
| 2026-04-30 06:47 | 36.22132 | -114.50115 | 10833 ft | 297 kts | 232° |
| 2026-04-30 06:48 | 36.20836 | -114.52097 | 10461 ft | 296 kts | 232° |
| 2026-04-30 06:48 | 36.19542 | -114.54077 | 10088 ft | 296 kts | 232° |
| 2026-04-30 06:48 | 36.18250 | -114.56054 | 9724 ft | 295 kts | 232° |
| 2026-04-30 06:48 | 36.16961 | -114.58026 | 9346 ft | 294 kts | 232° |
| 2026-04-30 06:49 | 36.15679 | -114.59990 | 8983 ft | 293 kts | 232° |
| 2026-04-30 06:49 | 36.14405 | -114.61939 | 8733 ft | 290 kts | 232° |
| 2026-04-30 06:49 | 36.13135 | -114.63881 | 8553 ft | 290 kts | 232° |
| 2026-04-30 06:49 | 36.11866 | -114.65814 | 8359 ft | 287 kts | 232° |
| 2026-04-30 06:50 | 36.10640 | -114.67679 | 8264 ft | 270 kts | 232° |
| 2026-04-30 06:50 | 36.09489 | -114.69428 | 8156 ft | 256 kts | 232° |
| 2026-04-30 06:50 | 36.08392 | -114.71104 | 8052 ft | 246 kts | 234° |
| 2026-04-30 06:50 | 36.07598 | -114.72934 | 7987 ft | 241 kts | 253° |
| 2026-04-30 06:51 | 36.07310 | -114.74955 | 7684 ft | 238 kts | 271° |
| 2026-04-30 06:51 | 36.07328 | -114.76983 | 7461 ft | 237 kts | 271° |
| 2026-04-30 06:51 | 36.07334 | -114.79018 | 7188 ft | 236 kts | 271° |
| 2026-04-30 06:51 | 36.07337 | -114.81041 | 6887 ft | 235 kts | 271° |
| 2026-04-30 06:52 | 36.07341 | -114.83043 | 6604 ft | 231 kts | 271° |
| 2026-04-30 06:52 | 36.07345 | -114.85006 | 6308 ft | 227 kts | 271° |
| 2026-04-30 06:52 | 36.07348 | -114.86931 | 6019 ft | 221 kts | 271° |
| 2026-04-30 06:52 | 36.07351 | -114.88800 | 5728 ft | 214 kts | 271° |
| 2026-04-30 06:53 | 36.07354 | -114.90609 | 5459 ft | 208 kts | 270° |
| 2026-04-30 06:53 | 36.07356 | -114.92368 | 5192 ft | 202 kts | 270° |
| 2026-04-30 06:53 | 36.07359 | -114.94085 | 4940 ft | 198 kts | 270° |
| 2026-04-30 06:53 | 36.07360 | -114.95786 | 4695 ft | 197 kts | 270° |
| 2026-04-30 06:54 | 36.07362 | -114.97452 | 4466 ft | 190 kts | 270° |
| 2026-04-30 06:54 | 36.07363 | -114.99065 | 4206 ft | 185 kts | 270° |
| 2026-04-30 06:54 | 36.07364 | -115.00635 | 3970 ft | 180 kts | 270° |
| 2026-04-30 06:54 | 36.07365 | -115.02155 | 3752 ft | 171 kts | 270° |
| 2026-04-30 06:55 | 36.07366 | -115.03546 | 3540 ft | 155 kts | 270° |
| 2026-04-30 06:55 | 36.07366 | -115.04820 | 3350 ft | 149 kts | 270° |
| 2026-04-30 06:55 | 36.07366 | -115.06084 | 3160 ft | 146 kts | 270° |
| 2026-04-30 06:55 | 36.07366 | -115.07333 | 2962 ft | 145 kts | 270° |
| 2026-04-30 06:56 | 36.07366 | -115.08584 | 2759 ft | 146 kts | 270° |
| 2026-04-30 06:56 | 36.07366 | -115.09838 | 2551 ft | 146 kts | 270° |
| 2026-04-30 06:56 | 36.07365 | -115.11094 | 2356 ft | 146 kts | 270° |
| 2026-04-30 06:56 | 36.07369 | -115.12351 | 2267 ft | 147 kts | 271° |
| 2026-04-30 06:57 | 36.07369 | -115.13553 | 2188 ft | 130 kts | 270° |
| 2026-04-30 06:57 | 36.07366 | -115.14348 | 2192 ft | 49 kts | 269° |
| 2026-04-30 06:57 | 36.07365 | -115.14538 | 2191 ft | 16 kts | 270° |
| 2026-04-30 06:57 | 36.07367 | -115.14729 | 2190 ft | 27 kts | 278° |
| 2026-04-30 06:58 | 36.07429 | -115.14970 | 2190 ft | 29 kts | 297° |
| 2026-04-30 06:58 | 36.07535 | -115.15128 | 2190 ft | 22 kts | 323° |
| 2026-04-30 06:58 | 36.07666 | -115.15214 | 2192 ft | 20 kts | 335° |
| 2026-04-30 06:58 | 36.07777 | -115.15265 | 2190 ft | 13 kts | 359° |
| 2026-04-30 06:59 | 36.07846 | -115.15208 | 2190 ft | 12 kts | 30° |